createdAt,value
2023-08-16T00:01:38.865Z,3.20
2023-08-16T00:04:09.126Z,3.57
2023-08-16T00:06:37.415Z,3.03
2023-08-16T00:09:06.060Z,3.20
2023-08-16T00:11:34.318Z,3.40
2023-08-16T00:14:02.432Z,2.70
2023-08-16T00:16:30.512Z,3.60
2023-08-16T00:18:58.665Z,3.80
2023-08-16T00:21:28.248Z,3.30
2023-08-16T00:23:56.323Z,3.83
2023-08-16T00:26:25.222Z,3.30
2023-08-16T00:28:54.847Z,3.40
2023-08-16T00:31:22.978Z,4.00
2023-08-16T00:33:51.398Z,3.87
2023-08-16T00:36:19.456Z,3.60
2023-08-16T00:38:48.898Z,3.90
2023-08-16T00:41:16.983Z,3.70
2023-08-16T00:43:45.144Z,3.53
2023-08-16T00:46:14.816Z,3.80
2023-08-16T00:48:45.591Z,4.33
2023-08-16T00:51:14.360Z,4.47
2023-08-16T00:53:43.521Z,4.13
2023-08-16T00:56:15.182Z,4.40
2023-08-16T00:58:43.793Z,4.50
2023-08-16T01:01:12.372Z,4.43
2023-08-16T01:03:40.984Z,4.33
2023-08-16T01:06:09.215Z,4.80
2023-08-16T01:08:37.568Z,4.70
2023-08-16T01:11:14.573Z,4.73
2023-08-16T01:13:51.653Z,4.83
2023-08-16T01:16:22.095Z,4.90
2023-08-16T01:18:51.259Z,5.23
2023-08-16T01:21:21.486Z,5.77
2023-08-16T01:24:06.916Z,5.50
2023-08-16T01:26:38.059Z,5.30
2023-08-16T01:29:08.164Z,4.50
2023-08-16T01:31:36.663Z,5.87
2023-08-16T01:34:05.012Z,5.60
2023-08-16T01:36:33.111Z,5.03
2023-08-16T01:39:01.204Z,5.50
2023-08-16T01:41:33.485Z,6.10
2023-08-16T01:44:04.088Z,5.30
2023-08-16T01:46:33.396Z,5.53
2023-08-16T01:49:02.604Z,5.30
2023-08-16T01:51:30.714Z,5.80
2023-08-16T01:53:58.993Z,5.17
2023-08-16T01:56:27.572Z,5.80
2023-08-16T01:58:55.940Z,5.37
2023-08-16T02:01:25.440Z,5.80
2023-08-16T02:03:54.860Z,5.73
2023-08-16T02:06:23.924Z,6.00
2023-08-16T02:08:53.172Z,5.47
2023-08-16T02:11:21.726Z,5.77
2023-08-16T02:13:49.835Z,5.80
2023-08-16T02:16:18.125Z,6.43
2023-08-16T02:18:47.568Z,6.10
2023-08-16T02:21:15.635Z,5.90
2023-08-16T02:23:43.772Z,6.60
2023-08-16T02:26:11.820Z,6.57
2023-08-16T02:28:39.897Z,6.37
2023-08-16T02:31:08.856Z,6.20
2023-08-16T02:33:37.329Z,5.80
2023-08-16T02:36:06.921Z,5.87
2023-08-16T02:38:34.967Z,6.57
2023-08-16T02:41:03.548Z,5.80
2023-08-16T02:43:31.653Z,6.10
2023-08-16T02:45:59.824Z,7.30
2023-08-16T02:48:27.880Z,6.03
2023-08-16T02:50:56.088Z,6.70
2023-08-16T02:53:25.473Z,6.90
2023-08-16T02:55:53.584Z,6.80
2023-08-16T02:58:22.045Z,5.50
2023-08-16T03:00:52.118Z,5.83
2023-08-16T03:03:20.361Z,5.90
2023-08-16T03:05:48.487Z,5.70
2023-08-16T03:08:16.580Z,6.00
2023-08-16T03:10:46.055Z,5.90
2023-08-16T03:13:14.154Z,6.40
2023-08-16T03:15:42.230Z,6.30
2023-08-16T03:18:10.394Z,6.30
2023-08-16T03:20:38.548Z,6.87
2023-08-16T03:23:06.999Z,5.83
2023-08-16T03:25:35.069Z,5.67
2023-08-16T03:28:04.964Z,5.60
2023-08-16T03:30:33.449Z,6.93
2023-08-16T03:33:01.581Z,5.10
2023-08-16T03:35:29.666Z,6.03
2023-08-16T03:37:58.546Z,5.60
2023-08-16T03:40:26.644Z,6.80
2023-08-16T03:42:54.734Z,6.47
2023-08-16T03:45:26.310Z,7.00
2023-08-16T03:47:54.889Z,6.60
2023-08-16T03:50:23.059Z,6.63
2023-08-16T03:52:51.176Z,6.50
2023-08-16T03:55:19.272Z,6.67
2023-08-16T03:57:47.340Z,6.23
2023-08-16T04:00:17.224Z,6.30
2023-08-16T04:02:46.879Z,5.57
2023-08-16T04:05:15.711Z,6.00
2023-08-16T04:07:44.179Z,6.10
2023-08-16T04:10:12.746Z,5.27
2023-08-16T04:12:40.912Z,5.90
2023-08-16T04:15:10.689Z,5.37
2023-08-16T04:17:39.253Z,6.23
2023-08-16T04:20:11.521Z,5.63
2023-08-16T04:22:39.640Z,5.00
2023-08-16T04:25:09.496Z,5.87
2023-08-16T04:27:37.895Z,5.60
2023-08-16T04:30:07.184Z,5.13
2023-08-16T04:32:35.603Z,5.63
2023-08-16T04:35:04.122Z,4.60
2023-08-16T04:37:33.907Z,4.23
2023-08-16T04:40:01.984Z,5.80
2023-08-16T04:42:34.508Z,4.90
2023-08-16T04:45:04.705Z,5.17
2023-08-16T04:47:32.948Z,5.10
2023-08-16T04:50:01.076Z,5.67
2023-08-16T04:52:29.281Z,5.93
2023-08-16T04:55:00.104Z,4.57
2023-08-16T04:57:29.702Z,6.10
2023-08-16T04:59:58.007Z,5.67
2023-08-16T05:02:26.193Z,5.20
2023-08-16T05:04:54.356Z,5.23
2023-08-16T05:07:22.720Z,5.30
2023-08-16T05:09:51.043Z,6.60
2023-08-16T05:12:20.496Z,6.00
2023-08-16T05:14:48.548Z,6.17
2023-08-16T05:17:16.635Z,6.03
2023-08-16T05:19:44.827Z,6.50
2023-08-16T05:22:12.990Z,7.00
2023-08-16T05:24:41.146Z,6.93
2023-08-16T05:27:13.331Z,7.10
2023-08-16T05:29:43.962Z,7.03
2023-08-16T05:32:12.124Z,6.93
2023-08-16T05:34:40.255Z,6.50
2023-08-16T05:37:10.229Z,6.10
2023-08-16T05:39:39.930Z,5.93
2023-08-16T05:42:09.378Z,5.50
2023-08-16T05:44:37.477Z,5.73
2023-08-16T05:47:07.434Z,6.33
2023-08-16T05:49:35.542Z,4.90
2023-08-16T05:52:03.663Z,6.07
2023-08-16T05:54:31.740Z,5.00
2023-08-16T05:56:59.865Z,5.60
2023-08-16T05:59:27.976Z,6.23
2023-08-16T06:01:56.098Z,5.77
2023-08-16T06:04:26.670Z,5.87
2023-08-16T06:06:54.917Z,5.70
2023-08-16T06:09:23.005Z,5.57
2023-08-16T06:11:51.308Z,5.60
2023-08-16T06:14:19.350Z,4.67
2023-08-16T06:16:47.837Z,5.20
2023-08-16T06:19:17.121Z,5.00
2023-08-16T06:21:46.602Z,4.10
2023-08-16T06:24:14.706Z,4.57
2023-08-16T06:26:42.747Z,4.10
2023-08-16T06:29:10.794Z,4.70
2023-08-16T06:31:39.099Z,4.30
2023-08-16T06:34:07.527Z,4.20
2023-08-16T06:36:35.965Z,4.70
2023-08-16T06:39:05.635Z,4.33
2023-08-16T06:41:33.668Z,4.23
2023-08-16T06:44:01.727Z,4.90
2023-08-16T06:46:29.854Z,4.83
2023-08-16T06:48:57.951Z,5.23
2023-08-16T06:51:26.059Z,4.50
2023-08-16T06:53:54.128Z,5.20
2023-08-16T06:56:23.499Z,5.13
2023-08-16T06:58:52.245Z,5.17
2023-08-16T07:01:20.374Z,5.30
2023-08-16T07:03:49.505Z,5.07
2023-08-16T07:06:18.679Z,4.53
2023-08-16T07:08:46.869Z,4.83
2023-08-16T07:11:15.003Z,4.20
2023-08-16T07:13:44.568Z,5.37
2023-08-16T07:16:13.397Z,5.10
2023-08-16T07:18:41.541Z,5.00
2023-08-16T07:21:09.913Z,4.60
2023-08-16T07:23:38.026Z,4.80
2023-08-16T07:26:06.420Z,5.13
2023-08-16T07:28:34.486Z,4.57
2023-08-16T07:31:04.007Z,4.73
2023-08-16T07:33:32.607Z,4.60
2023-08-16T07:36:05.084Z,4.80
2023-08-16T07:38:34.286Z,5.37
2023-08-16T07:41:02.664Z,5.13
2023-08-16T07:43:31.085Z,5.10
2023-08-16T07:45:59.252Z,5.27
2023-08-16T07:48:28.729Z,4.70
2023-08-16T07:50:57.083Z,4.90
2023-08-16T07:53:25.304Z,5.10
2023-08-16T07:55:53.639Z,5.37
2023-08-16T07:58:21.828Z,5.40
2023-08-16T08:00:54.425Z,5.00
2023-08-16T08:03:23.437Z,5.17
2023-08-16T08:05:54.387Z,5.50
2023-08-16T08:08:22.490Z,5.33
2023-08-16T08:10:50.543Z,5.10
2023-08-16T08:13:18.844Z,4.77
2023-08-16T08:15:47.999Z,5.30
2023-08-16T08:18:16.170Z,4.70
2023-08-16T08:20:44.261Z,4.70
2023-08-16T08:23:13.778Z,4.77
2023-08-16T08:25:43.864Z,5.43
2023-08-16T08:28:11.993Z,5.17
2023-08-16T08:30:43.054Z,6.03
2023-08-16T08:33:11.443Z,4.77
2023-08-16T08:35:40.204Z,5.37
2023-08-16T08:38:09.197Z,5.10
2023-08-16T08:40:38.655Z,4.97
2023-08-16T08:43:08.483Z,5.50
2023-08-16T08:45:37.137Z,5.13
2023-08-16T08:48:07.322Z,5.00
2023-08-16T08:50:38.437Z,5.40
2023-08-16T08:53:06.574Z,5.27
2023-08-16T08:55:34.836Z,5.70
2023-08-16T08:58:05.377Z,5.50
2023-08-16T09:00:35.638Z,5.33
2023-08-16T09:03:08.958Z,5.57
2023-08-16T09:05:39.524Z,4.90
2023-08-16T09:08:08.943Z,5.70
2023-08-16T09:10:39.084Z,6.20
2023-08-16T09:13:11.289Z,5.70
2023-08-16T09:15:39.824Z,5.30
2023-08-16T09:18:10.589Z,5.80
2023-08-16T09:20:38.894Z,5.70
2023-08-16T09:23:07.476Z,5.87
2023-08-16T09:25:35.943Z,6.00
2023-08-16T09:28:04.274Z,5.67
2023-08-16T09:30:34.646Z,5.17
2023-08-16T09:33:03.161Z,5.63
2023-08-16T09:35:32.106Z,6.17
2023-08-16T09:38:01.247Z,5.50
2023-08-16T09:40:29.730Z,6.70
2023-08-16T09:43:01.371Z,6.57
2023-08-16T09:45:34.119Z,5.83
2023-08-16T09:48:04.090Z,5.87
2023-08-16T09:50:51.424Z,5.23
2023-08-16T09:56:04.067Z,6.40
2023-08-16T09:58:33.360Z,6.40
2023-08-16T10:01:28.606Z,5.57
2023-08-16T10:06:38.104Z,5.40
2023-08-16T10:09:10.496Z,5.83
2023-08-16T10:11:39.518Z,5.87
2023-08-16T10:14:08.922Z,5.90
2023-08-16T10:16:40.097Z,6.13
2023-08-16T10:19:13.756Z,6.17
2023-08-16T10:21:46.169Z,5.17
2023-08-16T10:24:32.162Z,5.23
2023-08-16T10:27:05.717Z,6.07
2023-08-16T10:29:38.745Z,6.77
2023-08-16T10:32:13.641Z,5.80
2023-08-16T10:34:42.605Z,6.23
2023-08-16T10:37:11.383Z,5.53
2023-08-16T10:39:39.504Z,5.97
2023-08-16T10:42:08.589Z,5.83
2023-08-16T10:44:37.077Z,5.33
2023-08-16T10:47:05.636Z,6.10
2023-08-16T10:49:42.713Z,6.20
2023-08-16T10:52:10.951Z,5.60
2023-08-16T10:54:40.066Z,6.50
2023-08-16T10:57:09.129Z,6.10
2023-08-16T10:59:40.227Z,5.73
2023-08-16T11:02:16.011Z,6.20
2023-08-16T11:04:47.194Z,6.00
2023-08-16T11:07:16.615Z,5.63
2023-08-16T11:09:45.165Z,6.17
2023-08-16T11:12:15.768Z,5.77
2023-08-16T11:14:46.052Z,5.70
2023-08-16T11:17:16.155Z,5.87
2023-08-16T11:19:47.515Z,6.43
2023-08-16T11:22:16.411Z,5.60
2023-08-16T11:24:47.567Z,5.93
2023-08-16T11:27:21.645Z,6.33
2023-08-16T11:29:51.009Z,5.93
2023-08-16T11:32:29.993Z,6.07
2023-08-16T11:34:59.597Z,5.80
2023-08-16T11:37:27.742Z,5.60
2023-08-16T11:40:02.450Z,5.63
2023-08-16T11:42:30.830Z,6.43
2023-08-16T11:44:58.943Z,5.63
2023-08-16T11:47:27.214Z,5.67
2023-08-16T11:49:55.487Z,6.27
2023-08-16T11:52:26.812Z,5.27
2023-08-16T11:55:06.049Z,5.57
2023-08-16T11:57:34.381Z,5.80
2023-08-16T12:00:04.299Z,5.60
2023-08-16T12:02:32.794Z,4.97
2023-08-16T12:05:11.192Z,5.17
2023-08-16T12:07:45.220Z,5.90
2023-08-16T12:10:24.108Z,6.00
2023-08-16T12:12:53.747Z,5.67
2023-08-16T12:15:24.585Z,5.60
2023-08-16T12:17:54.090Z,6.27
2023-08-16T12:20:24.540Z,6.20
2023-08-16T12:22:55.028Z,5.80
2023-08-16T12:25:23.216Z,4.70
2023-08-16T12:27:51.280Z,5.50
2023-08-16T12:30:26.984Z,5.77
2023-08-16T12:32:55.040Z,5.50
2023-08-16T12:35:23.757Z,4.93
2023-08-16T12:40:26.209Z,5.10
2023-08-16T12:42:54.333Z,5.67
2023-08-16T12:45:22.484Z,5.93
2023-08-16T12:47:50.708Z,5.00
2023-08-16T12:50:20.104Z,5.43
2023-08-16T12:52:48.232Z,5.13
2023-08-16T12:55:18.520Z,5.13
2023-08-16T12:58:02.285Z,5.20
2023-08-16T13:00:45.986Z,5.10
2023-08-16T13:03:15.302Z,5.07
2023-08-16T13:08:26.821Z,5.20
2023-08-16T13:11:08.423Z,4.10
2023-08-16T13:13:39.039Z,4.43
2023-08-16T13:16:10.044Z,4.73
2023-08-16T13:23:52.914Z,4.47
2023-08-16T13:29:10.054Z,3.70
2023-08-16T13:39:28.917Z,4.00
2023-08-16T13:47:01.773Z,3.83
2023-08-16T13:49:29.948Z,3.70
2023-08-16T13:51:58.007Z,3.47
2023-08-16T13:54:26.121Z,4.00
2023-08-16T13:56:54.159Z,3.97
2023-08-16T13:59:23.717Z,3.93
2023-08-16T14:01:52.012Z,3.67
2023-08-16T14:04:20.136Z,3.57
2023-08-16T14:06:48.640Z,3.30
2023-08-16T14:09:16.724Z,4.40
2023-08-16T14:11:44.900Z,4.40
2023-08-16T14:14:13.606Z,3.60
2023-08-16T14:16:44.334Z,3.90
2023-08-16T14:19:12.611Z,3.57
2023-08-16T14:21:42.797Z,3.60
2023-08-16T14:24:12.536Z,3.70
2023-08-16T14:26:40.830Z,3.60
2023-08-16T14:29:11.484Z,3.70
2023-08-16T14:31:39.944Z,3.97
2023-08-16T14:34:09.503Z,3.60
2023-08-16T14:36:37.671Z,3.90
2023-08-16T14:39:06.191Z,3.87
2023-08-16T14:41:34.327Z,3.87
2023-08-16T14:44:02.436Z,3.33
2023-08-16T14:46:30.700Z,3.80
2023-08-16T14:48:59.021Z,3.63
2023-08-16T14:51:28.452Z,3.70
2023-08-16T14:53:56.598Z,3.57
2023-08-16T14:56:24.863Z,3.20
2023-08-16T14:58:53.152Z,3.07
2023-08-16T15:01:21.340Z,3.37
2023-08-16T15:03:49.711Z,3.87
2023-08-16T15:06:17.827Z,3.23
2023-08-16T15:08:47.274Z,3.47
2023-08-16T15:11:16.758Z,3.60
2023-08-16T15:13:45.277Z,4.30
2023-08-16T15:16:15.905Z,4.30
2023-08-16T15:18:44.046Z,3.50
2023-08-16T15:21:12.529Z,3.33
2023-08-16T15:23:40.944Z,3.77
2023-08-16T15:26:10.506Z,3.30
2023-08-16T15:28:38.906Z,3.87
2023-08-16T15:31:07.732Z,3.37
2023-08-16T15:33:36.286Z,4.30
2023-08-16T15:36:04.416Z,3.90
2023-08-16T15:38:41.349Z,4.20
2023-08-16T15:41:11.794Z,4.47
2023-08-16T15:43:41.738Z,3.83
2023-08-16T15:46:12.715Z,4.30
2023-08-16T15:48:41.501Z,4.60
2023-08-16T15:51:09.744Z,4.40
2023-08-16T15:53:37.821Z,4.50
2023-08-16T15:56:07.249Z,4.80
2023-08-16T15:58:36.939Z,4.47
2023-08-16T16:01:06.430Z,5.00
2023-08-16T16:03:34.747Z,4.30
2023-08-16T16:06:04.077Z,4.67
2023-08-16T16:08:32.982Z,4.90
2023-08-16T16:11:01.980Z,4.37
2023-08-16T16:13:30.230Z,5.60
2023-08-16T16:15:59.768Z,4.37
2023-08-16T16:18:28.405Z,4.87
2023-08-16T16:20:57.281Z,5.60
2023-08-16T16:23:26.084Z,4.43
2023-08-16T16:25:54.400Z,5.00
2023-08-16T16:28:22.521Z,5.43
2023-08-16T16:30:50.746Z,5.27
2023-08-16T16:33:20.311Z,5.77
2023-08-16T16:35:48.489Z,5.60
2023-08-16T16:38:16.680Z,5.80
2023-08-16T16:40:44.871Z,5.10
2023-08-16T16:43:13.015Z,5.40
2023-08-16T16:45:41.160Z,6.00
2023-08-16T16:48:09.569Z,5.70
2023-08-16T16:50:41.145Z,5.90
2023-08-16T16:53:09.844Z,6.77
2023-08-16T16:55:38.671Z,6.00
2023-08-16T16:58:08.112Z,6.70
2023-08-16T17:00:37.455Z,6.87
2023-08-16T17:03:05.940Z,6.97
2023-08-16T17:05:34.233Z,6.67
2023-08-16T17:08:03.758Z,6.57
2023-08-16T17:10:31.920Z,6.40
2023-08-16T17:13:00.012Z,7.27
2023-08-16T17:15:28.840Z,7.80
2023-08-16T17:17:57.085Z,7.90
2023-08-16T17:20:25.664Z,6.70
2023-08-16T17:22:54.405Z,5.90
2023-08-16T17:25:23.886Z,5.80
2023-08-16T17:27:52.215Z,5.67
2023-08-16T17:30:21.078Z,5.10
2023-08-16T17:32:49.166Z,4.30
2023-08-16T17:35:17.320Z,5.73
2023-08-16T17:37:45.414Z,4.00
2023-08-16T17:40:13.784Z,4.40
2023-08-16T17:42:43.302Z,4.13
2023-08-16T17:45:12.608Z,4.90
2023-08-16T17:47:40.735Z,4.40
2023-08-16T17:50:10.205Z,3.60
2023-08-16T17:52:38.411Z,3.83
2023-08-16T17:55:07.420Z,3.60
2023-08-16T17:57:35.516Z,4.60
2023-08-16T18:00:05.497Z,3.23
2023-08-16T18:02:34.719Z,2.80
2023-08-16T18:05:02.865Z,3.30
2023-08-16T18:07:30.977Z,2.57
2023-08-16T18:09:59.075Z,3.70
2023-08-16T18:12:27.206Z,2.63
2023-08-16T18:14:55.355Z,3.10
2023-08-16T18:17:25.081Z,3.40
2023-08-16T18:19:53.535Z,3.07
2023-08-16T18:22:22.052Z,3.17
2023-08-16T18:24:50.125Z,2.70
2023-08-16T18:27:18.239Z,3.17
2023-08-16T18:29:46.542Z,2.73
2023-08-16T18:32:14.644Z,2.77
2023-08-16T18:34:44.460Z,2.70
2023-08-16T18:37:13.378Z,2.67
2023-08-16T18:39:41.545Z,3.00
2023-08-16T18:42:09.634Z,2.77
2023-08-16T18:44:37.756Z,3.63
2023-08-16T18:47:06.618Z,3.30
2023-08-16T18:49:34.735Z,2.97
2023-08-16T18:52:04.238Z,3.10
2023-08-16T18:54:32.332Z,3.47
2023-08-16T18:57:00.419Z,3.93
2023-08-16T18:59:29.063Z,3.37
2023-08-16T19:01:57.122Z,3.70
2023-08-16T19:04:25.430Z,3.43
2023-08-16T19:06:53.553Z,3.63
2023-08-16T19:09:23.022Z,3.10
2023-08-16T19:11:51.130Z,3.27
2023-08-16T19:14:19.365Z,3.70
2023-08-16T19:16:47.687Z,3.60
2023-08-16T19:19:15.776Z,3.73
2023-08-16T19:21:43.829Z,4.10
2023-08-16T19:24:11.980Z,3.17
2023-08-16T19:26:41.418Z,3.80
2023-08-16T19:29:09.518Z,3.60
2023-08-16T19:31:37.635Z,4.03
2023-08-16T19:34:07.150Z,3.70
2023-08-16T19:36:35.230Z,3.20
2023-08-16T19:39:03.694Z,3.43
2023-08-16T19:41:31.814Z,3.27
2023-08-16T19:44:01.560Z,3.10
2023-08-16T19:46:29.656Z,3.90
2023-08-16T19:48:58.080Z,3.50
2023-08-16T19:51:27.871Z,3.20
2023-08-16T19:53:56.038Z,4.37
2023-08-16T19:56:24.404Z,4.20
2023-08-16T19:58:52.541Z,4.00
2023-08-16T20:01:23.828Z,4.00
2023-08-16T20:03:52.253Z,3.90
2023-08-16T20:06:20.447Z,4.30
2023-08-16T20:08:48.519Z,3.80
2023-08-16T20:11:16.647Z,5.40
2023-08-16T20:13:44.665Z,4.30
2023-08-16T20:16:12.783Z,4.30
2023-08-16T20:18:42.649Z,3.90
2023-08-16T20:21:11.690Z,4.50
2023-08-16T20:23:39.782Z,4.50
2023-08-16T20:26:09.195Z,5.73
2023-08-16T20:28:37.312Z,5.13
2023-08-16T20:31:05.464Z,4.90
2023-08-16T20:33:33.502Z,4.57
2023-08-16T20:36:03.879Z,4.30
2023-08-16T20:38:32.103Z,5.20
2023-08-16T20:41:00.985Z,5.00
2023-08-16T20:43:30.828Z,4.57
2023-08-16T20:46:00.116Z,4.60
2023-08-16T20:48:28.205Z,4.60
2023-08-16T20:50:56.325Z,4.30
2023-08-16T20:53:25.766Z,4.60
2023-08-16T20:55:53.853Z,4.70
2023-08-16T20:58:21.959Z,5.07
2023-08-16T21:00:50.059Z,4.70
2023-08-16T21:03:18.141Z,4.20
2023-08-16T21:05:46.287Z,5.80
2023-08-16T21:08:14.345Z,6.03
2023-08-16T21:10:43.830Z,3.90
2023-08-16T21:13:11.924Z,4.40
2023-08-16T21:15:40.107Z,4.50
2023-08-16T21:18:08.180Z,5.30
2023-08-16T21:20:36.493Z,4.80
2023-08-16T21:23:04.777Z,4.47
2023-08-16T21:25:32.860Z,4.57
2023-08-16T21:28:02.303Z,4.77
2023-08-16T21:30:30.404Z,4.70
2023-08-16T21:32:58.514Z,4.93
2023-08-16T21:35:26.874Z,4.37
2023-08-16T21:37:55.982Z,5.10
2023-08-16T21:40:24.059Z,4.13
2023-08-16T21:42:52.162Z,4.20
2023-08-16T21:45:21.672Z,4.63
2023-08-16T21:47:49.816Z,5.10
2023-08-16T21:50:17.925Z,4.07
2023-08-16T21:52:45.989Z,4.20
2023-08-16T21:55:14.319Z,3.97
2023-08-16T21:57:42.400Z,4.03
2023-08-16T22:00:12.317Z,4.63
2023-08-16T22:02:41.816Z,4.27
2023-08-16T22:05:10.641Z,5.27
2023-08-16T22:07:40.115Z,4.40
2023-08-16T22:10:09.622Z,4.33
2023-08-16T22:12:37.898Z,4.53
2023-08-16T22:15:07.063Z,4.40
2023-08-16T22:17:35.166Z,5.47
2023-08-16T22:20:06.150Z,4.70
2023-08-16T22:22:34.273Z,4.20
2023-08-16T22:25:02.354Z,4.70
2023-08-16T22:27:30.465Z,4.37
2023-08-16T22:29:59.480Z,4.07
2023-08-16T22:32:27.775Z,3.90
2023-08-16T22:34:55.827Z,3.80
2023-08-16T22:37:28.620Z,5.33
2023-08-16T22:39:57.189Z,3.90
2023-08-16T22:42:26.571Z,4.70
2023-08-16T22:44:54.693Z,5.30
2023-08-16T22:47:22.924Z,5.10
2023-08-16T22:49:51.215Z,5.10
2023-08-16T22:52:19.644Z,6.60
2023-08-16T22:54:49.067Z,6.00
2023-08-16T22:57:17.226Z,6.03
2023-08-16T22:59:45.283Z,5.37
2023-08-16T23:02:13.347Z,5.87
2023-08-16T23:04:41.482Z,5.20
2023-08-16T23:07:09.539Z,5.30
2023-08-16T23:09:37.620Z,6.70
2023-08-16T23:12:08.492Z,7.37
2023-08-16T23:14:36.543Z,7.83
2023-08-16T23:17:04.641Z,8.87
2023-08-16T23:19:32.682Z,10.70
2023-08-16T23:22:00.774Z,10.43
2023-08-16T23:24:28.853Z,10.97
2023-08-16T23:26:56.907Z,13.00
2023-08-16T23:29:26.333Z,10.43
2023-08-16T23:31:54.713Z,10.43
2023-08-16T23:34:22.789Z,10.07
2023-08-16T23:36:50.908Z,10.63
2023-08-16T23:39:19.169Z,11.03
2023-08-16T23:41:47.258Z,11.70
2023-08-16T23:44:15.436Z,10.77
2023-08-16T23:46:44.928Z,11.20
2023-08-16T23:49:13.044Z,11.53
2023-08-16T23:51:41.145Z,11.33
2023-08-16T23:54:09.234Z,9.87
2023-08-16T23:56:37.318Z,10.90
2023-08-16T23:59:05.729Z,11.30
